sensor_id;sensor_type;location;lat;lon;timestamp;P1;durP1;ratioP1;P2;durP2;ratioP2
84021;SDS011;74108;48.636;9.492;2024-03-25T00:01:05;2.75;;;1.70;;
84021;SDS011;74108;48.636;9.492;2024-03-25T00:03:31;4.05;;;2.00;;
84021;SDS011;74108;48.636;9.492;2024-03-25T00:05:56;2.17;;;1.20;;
84021;SDS011;74108;48.636;9.492;2024-03-25T00:08:22;5.55;;;1.48;;
84021;SDS011;74108;48.636;9.492;2024-03-25T00:10:47;4.50;;;1.85;;
84021;SDS011;74108;48.636;9.492;2024-03-25T00:13:13;3.50;;;1.65;;
84021;SDS011;74108;48.636;9.492;2024-03-25T00:15:38;4.50;;;1.80;;
84021;SDS011;74108;48.636;9.492;2024-03-25T00:18:04;3.95;;;1.90;;
84021;SDS011;74108;48.636;9.492;2024-03-25T00:20:30;3.05;;;1.80;;
84021;SDS011;74108;48.636;9.492;2024-03-25T00:22:55;4.25;;;1.85;;
84021;SDS011;74108;48.636;9.492;2024-03-25T00:25:20;3.95;;;1.80;;
84021;SDS011;74108;48.636;9.492;2024-03-25T00:27:46;3.08;;;1.70;;
84021;SDS011;74108;48.636;9.492;2024-03-25T00:30:12;4.72;;;1.85;;
84021;SDS011;74108;48.636;9.492;2024-03-25T00:32:38;3.92;;;1.80;;
84021;SDS011;74108;48.636;9.492;2024-03-25T00:35:04;2.88;;;1.65;;
84021;SDS011;74108;48.636;9.492;2024-03-25T00:37:29;3.42;;;1.95;;
84021;SDS011;74108;48.636;9.492;2024-03-25T00:39:55;3.75;;;1.70;;
84021;SDS011;74108;48.636;9.492;2024-03-25T00:42:20;5.28;;;2.17;;
84021;SDS011;74108;48.636;9.492;2024-03-25T00:44:46;4.38;;;1.90;;
84021;SDS011;74108;48.636;9.492;2024-03-25T00:47:11;4.75;;;2.00;;
84021;SDS011;74108;48.636;9.492;2024-03-25T00:49:36;2.80;;;1.90;;
84021;SDS011;74108;48.636;9.492;2024-03-25T00:52:02;6.40;;;1.65;;
84021;SDS011;74108;48.636;9.492;2024-03-25T00:54:27;3.25;;;1.90;;
84021;SDS011;74108;48.636;9.492;2024-03-25T00:56:52;2.92;;;1.67;;
84021;SDS011;74108;48.636;9.492;2024-03-25T00:59:18;3.28;;;1.88;;
84021;SDS011;74108;48.636;9.492;2024-03-25T01:01:44;6.03;;;2.10;;
84021;SDS011;74108;48.636;9.492;2024-03-25T01:04:09;4.90;;;1.80;;
84021;SDS011;74108;48.636;9.492;2024-03-25T01:06:35;4.90;;;1.63;;
84021;SDS011;74108;48.636;9.492;2024-03-25T01:09:00;4.70;;;1.90;;
84021;SDS011;74108;48.636;9.492;2024-03-25T01:11:26;3.10;;;1.83;;
84021;SDS011;74108;48.636;9.492;2024-03-25T01:13:51;3.25;;;1.77;;
84021;SDS011;74108;48.636;9.492;2024-03-25T01:16:16;3.42;;;1.63;;
84021;SDS011;74108;48.636;9.492;2024-03-25T01:18:42;2.38;;;1.60;;
84021;SDS011;74108;48.636;9.492;2024-03-25T01:21:08;5.05;;;2.00;;
84021;SDS011;74108;48.636;9.492;2024-03-25T01:23:33;3.70;;;1.85;;
84021;SDS011;74108;48.636;9.492;2024-03-25T01:25:59;2.58;;;1.70;;
84021;SDS011;74108;48.636;9.492;2024-03-25T01:28:25;5.43;;;2.05;;
84021;SDS011;74108;48.636;9.492;2024-03-25T01:30:51;5.85;;;2.13;;
84021;SDS011;74108;48.636;9.492;2024-03-25T01:33:16;3.70;;;2.22;;
84021;SDS011;74108;48.636;9.492;2024-03-25T01:35:42;5.10;;;2.13;;
84021;SDS011;74108;48.636;9.492;2024-03-25T01:38:07;5.20;;;2.42;;
84021;SDS011;74108;48.636;9.492;2024-03-25T01:40:33;6.95;;;2.50;;
84021;SDS011;74108;48.636;9.492;2024-03-25T01:42:59;4.03;;;1.90;;
84021;SDS011;74108;48.636;9.492;2024-03-25T01:45:28;4.78;;;2.65;;
84021;SDS011;74108;48.636;9.492;2024-03-25T01:47:56;3.17;;;2.00;;
84021;SDS011;74108;48.636;9.492;2024-03-25T01:50:22;4.15;;;2.30;;
84021;SDS011;74108;48.636;9.492;2024-03-25T01:52:49;5.53;;;2.20;;
84021;SDS011;74108;48.636;9.492;2024-03-25T01:55:15;5.45;;;2.17;;
84021;SDS011;74108;48.636;9.492;2024-03-25T01:57:45;6.07;;;2.10;;
84021;SDS011;74108;48.636;9.492;2024-03-25T02:00:12;3.63;;;2.00;;
84021;SDS011;74108;48.636;9.492;2024-03-25T02:02:39;4.30;;;2.30;;
84021;SDS011;74108;48.636;9.492;2024-03-25T02:05:15;4.43;;;1.95;;
84021;SDS011;74108;48.636;9.492;2024-03-25T02:07:42;3.92;;;1.73;;
84021;SDS011;74108;48.636;9.492;2024-03-25T02:10:08;4.20;;;2.00;;
84021;SDS011;74108;48.636;9.492;2024-03-25T02:12:44;4.32;;;2.00;;
84021;SDS011;74108;48.636;9.492;2024-03-25T02:15:11;3.42;;;1.85;;
84021;SDS011;74108;48.636;9.492;2024-03-25T02:17:38;2.72;;;1.70;;
84021;SDS011;74108;48.636;9.492;2024-03-25T02:20:04;4.72;;;2.10;;
84021;SDS011;74108;48.636;9.492;2024-03-25T02:22:30;3.00;;;2.00;;
84021;SDS011;74108;48.636;9.492;2024-03-25T02:24:57;3.63;;;1.98;;
84021;SDS011;74108;48.636;9.492;2024-03-25T02:27:23;3.70;;;1.90;;
84021;SDS011;74108;48.636;9.492;2024-03-25T02:29:49;3.80;;;2.00;;
84021;SDS011;74108;48.636;9.492;2024-03-25T02:32:15;3.25;;;1.80;;
84021;SDS011;74108;48.636;9.492;2024-03-25T02:34:41;3.17;;;1.90;;
84021;SDS011;74108;48.636;9.492;2024-03-25T02:37:10;3.33;;;1.65;;
84021;SDS011;74108;48.636;9.492;2024-03-25T02:39:36;5.03;;;2.00;;
84021;SDS011;74108;48.636;9.492;2024-03-25T02:42:02;3.95;;;2.00;;
84021;SDS011;74108;48.636;9.492;2024-03-25T02:44:28;3.95;;;1.83;;
84021;SDS011;74108;48.636;9.492;2024-03-25T02:46:54;3.72;;;2.10;;
84021;SDS011;74108;48.636;9.492;2024-03-25T02:49:20;4.28;;;2.22;;
84021;SDS011;74108;48.636;9.492;2024-03-25T02:51:45;3.15;;;1.90;;
84021;SDS011;74108;48.636;9.492;2024-03-25T02:54:11;4.20;;;2.08;;
84021;SDS011;74108;48.636;9.492;2024-03-25T02:56:36;5.80;;;2.00;;
84021;SDS011;74108;48.636;9.492;2024-03-25T02:59:02;4.82;;;2.35;;
84021;SDS011;74108;48.636;9.492;2024-03-25T03:01:27;4.38;;;2.03;;
84021;SDS011;74108;48.636;9.492;2024-03-25T03:03:53;3.65;;;2.10;;
84021;SDS011;74108;48.636;9.492;2024-03-25T03:06:18;3.45;;;1.80;;
84021;SDS011;74108;48.636;9.492;2024-03-25T03:08:44;3.78;;;2.03;;
84021;SDS011;74108;48.636;9.492;2024-03-25T03:11:09;4.38;;;2.10;;
84021;SDS011;74108;48.636;9.492;2024-03-25T03:13:36;6.30;;;2.10;;
84021;SDS011;74108;48.636;9.492;2024-03-25T03:16:01;4.55;;;2.08;;
84021;SDS011;74108;48.636;9.492;2024-03-25T03:18:28;3.90;;;2.05;;
84021;SDS011;74108;48.636;9.492;2024-03-25T03:20:57;5.60;;;1.73;;
84021;SDS011;74108;48.636;9.492;2024-03-25T03:23:22;4.20;;;1.90;;
84021;SDS011;74108;48.636;9.492;2024-03-25T03:25:48;5.82;;;2.83;;
84021;SDS011;74108;48.636;9.492;2024-03-25T03:28:14;3.42;;;1.80;;
84021;SDS011;74108;48.636;9.492;2024-03-25T03:30:40;4.13;;;1.92;;
84021;SDS011;74108;48.636;9.492;2024-03-25T03:33:05;4.55;;;1.98;;
84021;SDS011;74108;48.636;9.492;2024-03-25T03:35:32;3.40;;;1.88;;
84021;SDS011;74108;48.636;9.492;2024-03-25T03:38:00;4.13;;;2.00;;
84021;SDS011;74108;48.636;9.492;2024-03-25T03:40:26;3.22;;;1.88;;
84021;SDS011;74108;48.636;9.492;2024-03-25T03:42:51;5.57;;;2.03;;
84021;SDS011;74108;48.636;9.492;2024-03-25T03:45:16;5.10;;;2.10;;
84021;SDS011;74108;48.636;9.492;2024-03-25T03:47:42;5.10;;;1.95;;
84021;SDS011;74108;48.636;9.492;2024-03-25T03:50:07;3.40;;;1.80;;
84021;SDS011;74108;48.636;9.492;2024-03-25T03:52:33;2.47;;;1.60;;
84021;SDS011;74108;48.636;9.492;2024-03-25T03:54:58;3.20;;;1.77;;
84021;SDS011;74108;48.636;9.492;2024-03-25T03:57:24;4.57;;;1.80;;
84021;SDS011;74108;48.636;9.492;2024-03-25T03:59:51;3.25;;;1.85;;
84021;SDS011;74108;48.636;9.492;2024-03-25T04:02:16;3.10;;;1.80;;
84021;SDS011;74108;48.636;9.492;2024-03-25T04:04:42;4.15;;;2.00;;
84021;SDS011;74108;48.636;9.492;2024-03-25T04:07:07;5.15;;;2.10;;
84021;SDS011;74108;48.636;9.492;2024-03-25T04:09:32;6.60;;;2.08;;
84021;SDS011;74108;48.636;9.492;2024-03-25T04:11:58;3.03;;;1.80;;
84021;SDS011;74108;48.636;9.492;2024-03-25T04:14:23;3.85;;;1.90;;
84021;SDS011;74108;48.636;9.492;2024-03-25T04:16:48;3.83;;;1.90;;
84021;SDS011;74108;48.636;9.492;2024-03-25T04:19:16;3.15;;;1.85;;
84021;SDS011;74108;48.636;9.492;2024-03-25T04:21:41;4.53;;;2.03;;
84021;SDS011;74108;48.636;9.492;2024-03-25T04:24:07;4.18;;;2.08;;
84021;SDS011;74108;48.636;9.492;2024-03-25T04:26:33;2.55;;;1.80;;
84021;SDS011;74108;48.636;9.492;2024-03-25T04:28:59;4.40;;;2.08;;
84021;SDS011;74108;48.636;9.492;2024-03-25T04:31:24;4.25;;;2.00;;
84021;SDS011;74108;48.636;9.492;2024-03-25T04:33:50;3.90;;;1.90;;
84021;SDS011;74108;48.636;9.492;2024-03-25T04:36:15;4.55;;;1.90;;
84021;SDS011;74108;48.636;9.492;2024-03-25T04:38:40;5.25;;;2.00;;
84021;SDS011;74108;48.636;9.492;2024-03-25T04:41:06;6.70;;;2.47;;
84021;SDS011;74108;48.636;9.492;2024-03-25T04:43:31;4.43;;;2.30;;
84021;SDS011;74108;48.636;9.492;2024-03-25T04:46:00;7.63;;;2.88;;
84021;SDS011;74108;48.636;9.492;2024-03-25T04:48:26;5.13;;;2.65;;
84021;SDS011;74108;48.636;9.492;2024-03-25T04:50:51;9.02;;;2.90;;
84021;SDS011;74108;48.636;9.492;2024-03-25T04:53:17;6.47;;;2.38;;
84021;SDS011;74108;48.636;9.492;2024-03-25T04:55:42;7.50;;;2.95;;
84021;SDS011;74108;48.636;9.492;2024-03-25T04:58:08;6.85;;;2.63;;
84021;SDS011;74108;48.636;9.492;2024-03-25T05:00:34;5.18;;;3.13;;
84021;SDS011;74108;48.636;9.492;2024-03-25T05:02:59;7.80;;;3.25;;
84021;SDS011;74108;48.636;9.492;2024-03-25T05:05:24;8.93;;;3.10;;
84021;SDS011;74108;48.636;9.492;2024-03-25T05:07:50;8.05;;;2.90;;
84021;SDS011;74108;48.636;9.492;2024-03-25T05:10:15;6.20;;;3.03;;
84021;SDS011;74108;48.636;9.492;2024-03-25T05:12:40;7.68;;;3.88;;
84021;SDS011;74108;48.636;9.492;2024-03-25T05:15:06;6.00;;;3.10;;
84021;SDS011;74108;48.636;9.492;2024-03-25T05:17:31;5.32;;;3.15;;
84021;SDS011;74108;48.636;9.492;2024-03-25T05:19:57;6.07;;;2.70;;
84021;SDS011;74108;48.636;9.492;2024-03-25T05:22:22;8.43;;;4.25;;
84021;SDS011;74108;48.636;9.492;2024-03-25T05:24:47;6.05;;;3.40;;
84021;SDS011;74108;48.636;9.492;2024-03-25T05:27:13;7.53;;;4.13;;
84021;SDS011;74108;48.636;9.492;2024-03-25T05:29:38;7.47;;;3.20;;
84021;SDS011;74108;48.636;9.492;2024-03-25T05:32:03;6.68;;;2.83;;
84021;SDS011;74108;48.636;9.492;2024-03-25T05:34:29;7.72;;;3.17;;
84021;SDS011;74108;48.636;9.492;2024-03-25T05:36:56;6.97;;;3.22;;
84021;SDS011;74108;48.636;9.492;2024-03-25T05:39:22;10.75;;;3.13;;
84021;SDS011;74108;48.636;9.492;2024-03-25T05:41:47;6.18;;;2.95;;
84021;SDS011;74108;48.636;9.492;2024-03-25T05:44:13;5.18;;;2.83;;
84021;SDS011;74108;48.636;9.492;2024-03-25T05:46:39;4.43;;;2.70;;
84021;SDS011;74108;48.636;9.492;2024-03-25T05:49:04;5.30;;;2.75;;
84021;SDS011;74108;48.636;9.492;2024-03-25T05:51:30;5.03;;;2.70;;
84021;SDS011;74108;48.636;9.492;2024-03-25T05:53:58;5.63;;;2.70;;
84021;SDS011;74108;48.636;9.492;2024-03-25T05:56:24;4.68;;;2.45;;
84021;SDS011;74108;48.636;9.492;2024-03-25T05:58:55;4.70;;;2.70;;
84021;SDS011;74108;48.636;9.492;2024-03-25T06:01:23;4.88;;;2.47;;
84021;SDS011;74108;48.636;9.492;2024-03-25T06:03:48;7.57;;;3.20;;
84021;SDS011;74108;48.636;9.492;2024-03-25T06:06:14;6.75;;;2.75;;
84021;SDS011;74108;48.636;9.492;2024-03-25T06:08:39;7.38;;;2.53;;
84021;SDS011;74108;48.636;9.492;2024-03-25T06:11:04;6.22;;;2.58;;
84021;SDS011;74108;48.636;9.492;2024-03-25T06:13:30;6.47;;;2.92;;
84021;SDS011;74108;48.636;9.492;2024-03-25T06:15:55;4.95;;;2.95;;
84021;SDS011;74108;48.636;9.492;2024-03-25T06:18:20;5.80;;;2.55;;
84021;SDS011;74108;48.636;9.492;2024-03-25T06:20:46;5.65;;;2.50;;
84021;SDS011;74108;48.636;9.492;2024-03-25T06:23:21;5.03;;;2.20;;
84021;SDS011;74108;48.636;9.492;2024-03-25T06:25:47;5.57;;;2.20;;
84021;SDS011;74108;48.636;9.492;2024-03-25T06:28:13;3.65;;;2.40;;
84021;SDS011;74108;48.636;9.492;2024-03-25T06:30:38;6.13;;;2.40;;
84021;SDS011;74108;48.636;9.492;2024-03-25T06:33:22;3.95;;;2.25;;
84021;SDS011;74108;48.636;9.492;2024-03-25T06:36:06;4.55;;;2.20;;
84021;SDS011;74108;48.636;9.492;2024-03-25T06:38:32;4.45;;;2.20;;
84021;SDS011;74108;48.636;9.492;2024-03-25T06:40:57;5.07;;;2.22;;
84021;SDS011;74108;48.636;9.492;2024-03-25T06:43:23;6.45;;;2.30;;
84021;SDS011;74108;48.636;9.492;2024-03-25T06:45:49;3.55;;;2.10;;
84021;SDS011;74108;48.636;9.492;2024-03-25T06:48:14;5.63;;;2.63;;
84021;SDS011;74108;48.636;9.492;2024-03-25T06:50:39;6.22;;;2.05;;
84021;SDS011;74108;48.636;9.492;2024-03-25T06:53:05;6.63;;;2.50;;
84021;SDS011;74108;48.636;9.492;2024-03-25T06:55:30;5.80;;;2.35;;
84021;SDS011;74108;48.636;9.492;2024-03-25T06:57:56;6.47;;;2.20;;
84021;SDS011;74108;48.636;9.492;2024-03-25T07:00:21;7.53;;;2.40;;
84021;SDS011;74108;48.636;9.492;2024-03-25T07:02:47;4.15;;;2.38;;
84021;SDS011;74108;48.636;9.492;2024-03-25T07:05:13;8.07;;;2.50;;
84021;SDS011;74108;48.636;9.492;2024-03-25T07:07:38;6.85;;;2.60;;
84021;SDS011;74108;48.636;9.492;2024-03-25T07:10:04;5.55;;;2.30;;
84021;SDS011;74108;48.636;9.492;2024-03-25T07:12:30;6.15;;;2.25;;
84021;SDS011;74108;48.636;9.492;2024-03-25T07:14:55;4.05;;;2.05;;
84021;SDS011;74108;48.636;9.492;2024-03-25T07:17:21;5.95;;;2.20;;
84021;SDS011;74108;48.636;9.492;2024-03-25T07:22:14;6.68;;;2.30;;
84021;SDS011;74108;48.636;9.492;2024-03-25T07:24:39;9.63;;;2.55;;
84021;SDS011;74108;48.636;9.492;2024-03-25T07:27:05;5.05;;;2.50;;
84021;SDS011;74108;48.636;9.492;2024-03-25T07:29:31;5.68;;;1.92;;
84021;SDS011;74108;48.636;9.492;2024-03-25T07:31:56;4.60;;;2.05;;
84021;SDS011;74108;48.636;9.492;2024-03-25T07:34:22;5.30;;;2.50;;
84021;SDS011;74108;48.636;9.492;2024-03-25T07:36:47;4.85;;;2.20;;
84021;SDS011;74108;48.636;9.492;2024-03-25T07:39:14;3.65;;;2.13;;
84021;SDS011;74108;48.636;9.492;2024-03-25T07:41:40;6.97;;;2.60;;
84021;SDS011;74108;48.636;9.492;2024-03-25T07:44:05;3.58;;;2.13;;
84021;SDS011;74108;48.636;9.492;2024-03-25T07:46:31;3.85;;;2.20;;
84021;SDS011;74108;48.636;9.492;2024-03-25T07:48:56;5.50;;;2.40;;
84021;SDS011;74108;48.636;9.492;2024-03-25T07:51:21;5.05;;;2.38;;
84021;SDS011;74108;48.636;9.492;2024-03-25T07:53:47;3.70;;;1.98;;
84021;SDS011;74108;48.636;9.492;2024-03-25T07:56:13;4.53;;;2.08;;
84021;SDS011;74108;48.636;9.492;2024-03-25T07:58:40;3.67;;;2.15;;
84021;SDS011;74108;48.636;9.492;2024-03-25T08:01:05;4.60;;;2.70;;
84021;SDS011;74108;48.636;9.492;2024-03-25T08:03:31;5.07;;;2.17;;
84021;SDS011;74108;48.636;9.492;2024-03-25T08:05:56;5.50;;;2.20;;
84021;SDS011;74108;48.636;9.492;2024-03-25T08:08:22;5.25;;;2.28;;
84021;SDS011;74108;48.636;9.492;2024-03-25T08:10:47;2.78;;;1.92;;
84021;SDS011;74108;48.636;9.492;2024-03-25T08:13:12;4.85;;;2.22;;
84021;SDS011;74108;48.636;9.492;2024-03-25T08:15:38;4.72;;;2.33;;
84021;SDS011;74108;48.636;9.492;2024-03-25T08:18:03;5.32;;;1.95;;
84021;SDS011;74108;48.636;9.492;2024-03-25T08:20:29;5.32;;;1.98;;
84021;SDS011;74108;48.636;9.492;2024-03-25T08:22:54;5.22;;;2.08;;
84021;SDS011;74108;48.636;9.492;2024-03-25T08:25:20;6.90;;;2.95;;
84021;SDS011;74108;48.636;9.492;2024-03-25T08:27:45;3.55;;;2.20;;
84021;SDS011;74108;48.636;9.492;2024-03-25T08:30:10;3.97;;;2.05;;
84021;SDS011;74108;48.636;9.492;2024-03-25T08:32:36;3.92;;;1.80;;
84021;SDS011;74108;48.636;9.492;2024-03-25T08:35:01;5.00;;;2.45;;
84021;SDS011;74108;48.636;9.492;2024-03-25T08:37:27;8.70;;;2.40;;
84021;SDS011;74108;48.636;9.492;2024-03-25T08:39:52;4.50;;;2.10;;
84021;SDS011;74108;48.636;9.492;2024-03-25T08:42:18;4.13;;;2.00;;
84021;SDS011;74108;48.636;9.492;2024-03-25T08:44:43;4.05;;;2.08;;
84021;SDS011;74108;48.636;9.492;2024-03-25T08:47:08;5.32;;;2.20;;
84021;SDS011;74108;48.636;9.492;2024-03-25T08:49:34;3.75;;;2.22;;
84021;SDS011;74108;48.636;9.492;2024-03-25T08:51:59;4.63;;;2.13;;
84021;SDS011;74108;48.636;9.492;2024-03-25T08:54:24;7.18;;;2.50;;
84021;SDS011;74108;48.636;9.492;2024-03-25T08:56:50;3.78;;;2.15;;
84021;SDS011;74108;48.636;9.492;2024-03-25T08:59:15;5.70;;;2.28;;
84021;SDS011;74108;48.636;9.492;2024-03-25T09:01:40;6.93;;;2.25;;
84021;SDS011;74108;48.636;9.492;2024-03-25T09:04:06;5.07;;;2.22;;
84021;SDS011;74108;48.636;9.492;2024-03-25T09:06:31;4.32;;;2.20;;
84021;SDS011;74108;48.636;9.492;2024-03-25T09:08:57;3.70;;;2.30;;
84021;SDS011;74108;48.636;9.492;2024-03-25T09:11:41;5.20;;;2.30;;
84021;SDS011;74108;48.636;9.492;2024-03-25T09:14:06;4.90;;;2.30;;
84021;SDS011;74108;48.636;9.492;2024-03-25T09:16:32;3.55;;;2.20;;
84021;SDS011;74108;48.636;9.492;2024-03-25T09:18:57;5.88;;;2.63;;
84021;SDS011;74108;48.636;9.492;2024-03-25T09:21:23;6.18;;;2.30;;
84021;SDS011;74108;48.636;9.492;2024-03-25T09:23:49;4.47;;;2.53;;
84021;SDS011;74108;48.636;9.492;2024-03-25T09:26:15;6.82;;;2.63;;
84021;SDS011;74108;48.636;9.492;2024-03-25T09:28:41;4.05;;;2.60;;
84021;SDS011;74108;48.636;9.492;2024-03-25T09:31:06;5.53;;;2.35;;
84021;SDS011;74108;48.636;9.492;2024-03-25T09:33:32;3.78;;;1.98;;
84021;SDS011;74108;48.636;9.492;2024-03-25T09:35:58;3.63;;;2.05;;
84021;SDS011;74108;48.636;9.492;2024-03-25T09:38:23;4.70;;;2.30;;
84021;SDS011;74108;48.636;9.492;2024-03-25T09:40:50;3.85;;;1.95;;
84021;SDS011;74108;48.636;9.492;2024-03-25T09:43:23;3.30;;;2.05;;
84021;SDS011;74108;48.636;9.492;2024-03-25T09:45:52;4.43;;;2.00;;
84021;SDS011;74108;48.636;9.492;2024-03-25T09:48:21;5.68;;;2.28;;
84021;SDS011;74108;48.636;9.492;2024-03-25T09:50:46;5.68;;;2.35;;
84021;SDS011;74108;48.636;9.492;2024-03-25T09:53:12;3.60;;;2.10;;
84021;SDS011;74108;48.636;9.492;2024-03-25T09:55:37;4.22;;;2.17;;
84021;SDS011;74108;48.636;9.492;2024-03-25T09:58:03;5.60;;;2.00;;
84021;SDS011;74108;48.636;9.492;2024-03-25T10:00:30;3.95;;;2.05;;
84021;SDS011;74108;48.636;9.492;2024-03-25T10:02:55;5.30;;;2.72;;
84021;SDS011;74108;48.636;9.492;2024-03-25T10:05:20;5.20;;;2.22;;
84021;SDS011;74108;48.636;9.492;2024-03-25T10:07:46;3.90;;;2.05;;
84021;SDS011;74108;48.636;9.492;2024-03-25T10:10:11;4.32;;;2.20;;
84021;SDS011;74108;48.636;9.492;2024-03-25T10:12:37;3.97;;;1.98;;
84021;SDS011;74108;48.636;9.492;2024-03-25T10:15:03;4.15;;;2.17;;
84021;SDS011;74108;48.636;9.492;2024-03-25T10:17:30;3.40;;;2.20;;
84021;SDS011;74108;48.636;9.492;2024-03-25T10:19:56;4.93;;;2.17;;
84021;SDS011;74108;48.636;9.492;2024-03-25T10:22:22;3.90;;;2.22;;
84021;SDS011;74108;48.636;9.492;2024-03-25T10:24:47;3.78;;;2.10;;
84021;SDS011;74108;48.636;9.492;2024-03-25T10:27:20;3.38;;;2.10;;
84021;SDS011;74108;48.636;9.492;2024-03-25T10:29:55;4.72;;;2.20;;
84021;SDS011;74108;48.636;9.492;2024-03-25T10:32:21;6.47;;;2.20;;
84021;SDS011;74108;48.636;9.492;2024-03-25T10:34:49;5.10;;;2.30;;
84021;SDS011;74108;48.636;9.492;2024-03-25T10:37:15;3.85;;;2.30;;
84021;SDS011;74108;48.636;9.492;2024-03-25T10:39:47;4.18;;;2.13;;
84021;SDS011;74108;48.636;9.492;2024-03-25T10:42:21;5.03;;;2.63;;
84021;SDS011;74108;48.636;9.492;2024-03-25T10:44:48;3.97;;;1.90;;
84021;SDS011;74108;48.636;9.492;2024-03-25T10:47:20;3.88;;;2.20;;
84021;SDS011;74108;48.636;9.492;2024-03-25T10:49:49;5.03;;;2.22;;
84021;SDS011;74108;48.636;9.492;2024-03-25T10:52:15;5.13;;;2.30;;
84021;SDS011;74108;48.636;9.492;2024-03-25T10:54:42;3.92;;;2.20;;
84021;SDS011;74108;48.636;9.492;2024-03-25T10:57:08;3.92;;;1.90;;
84021;SDS011;74108;48.636;9.492;2024-03-25T10:59:35;3.13;;;2.00;;
84021;SDS011;74108;48.636;9.492;2024-03-25T11:02:06;3.75;;;2.08;;
84021;SDS011;74108;48.636;9.492;2024-03-25T11:04:32;3.63;;;1.90;;
84021;SDS011;74108;48.636;9.492;2024-03-25T11:07:08;3.88;;;2.08;;
84021;SDS011;74108;48.636;9.492;2024-03-25T11:09:40;3.97;;;1.73;;
84021;SDS011;74108;48.636;9.492;2024-03-25T11:12:07;3.92;;;2.03;;
84021;SDS011;74108;48.636;9.492;2024-03-25T11:14:35;2.63;;;1.88;;
84021;SDS011;74108;48.636;9.492;2024-03-25T11:17:00;4.88;;;2.00;;
84021;SDS011;74108;48.636;9.492;2024-03-25T11:19:27;2.90;;;1.73;;
84021;SDS011;74108;48.636;9.492;2024-03-25T11:21:53;3.00;;;1.80;;
84021;SDS011;74108;48.636;9.492;2024-03-25T11:24:37;3.22;;;1.92;;
84021;SDS011;74108;48.636;9.492;2024-03-25T11:27:09;3.13;;;1.90;;
84021;SDS011;74108;48.636;9.492;2024-03-25T11:29:35;3.35;;;1.90;;
84021;SDS011;74108;48.636;9.492;2024-03-25T11:32:04;3.05;;;1.80;;
84021;SDS011;74108;48.636;9.492;2024-03-25T11:34:30;4.63;;;2.20;;
84021;SDS011;74108;48.636;9.492;2024-03-25T11:36:56;3.67;;;2.08;;
84021;SDS011;74108;48.636;9.492;2024-03-25T11:39:22;4.43;;;1.95;;
84021;SDS011;74108;48.636;9.492;2024-03-25T11:41:48;3.05;;;2.03;;
84021;SDS011;74108;48.636;9.492;2024-03-25T11:44:14;3.30;;;2.10;;
84021;SDS011;74108;48.636;9.492;2024-03-25T11:46:42;2.75;;;2.00;;
84021;SDS011;74108;48.636;9.492;2024-03-25T11:49:11;3.55;;;1.90;;
84021;SDS011;74108;48.636;9.492;2024-03-25T11:51:39;2.53;;;1.80;;
84021;SDS011;74108;48.636;9.492;2024-03-25T11:54:06;2.95;;;1.80;;
84021;SDS011;74108;48.636;9.492;2024-03-25T11:56:31;2.92;;;1.80;;
84021;SDS011;74108;48.636;9.492;2024-03-25T11:58:58;3.30;;;1.90;;
84021;SDS011;74108;48.636;9.492;2024-03-25T12:01:24;2.67;;;1.77;;
84021;SDS011;74108;48.636;9.492;2024-03-25T12:03:50;5.78;;;2.60;;
84021;SDS011;74108;48.636;9.492;2024-03-25T12:06:15;6.88;;;1.98;;
84021;SDS011;74108;48.636;9.492;2024-03-25T12:08:41;2.15;;;1.60;;
84021;SDS011;74108;48.636;9.492;2024-03-25T12:11:26;2.67;;;1.75;;
84021;SDS011;74108;48.636;9.492;2024-03-25T12:13:51;3.20;;;2.10;;
84021;SDS011;74108;48.636;9.492;2024-03-25T12:16:17;3.25;;;2.00;;
84021;SDS011;74108;48.636;9.492;2024-03-25T12:18:42;7.22;;;2.60;;
84021;SDS011;74108;48.636;9.492;2024-03-25T12:21:09;3.10;;;1.90;;
84021;SDS011;74108;48.636;9.492;2024-03-25T12:23:35;3.85;;;1.90;;
84021;SDS011;74108;48.636;9.492;2024-03-25T12:26:01;3.33;;;1.70;;
84021;SDS011;74108;48.636;9.492;2024-03-25T12:28:31;2.90;;;1.90;;
84021;SDS011;74108;48.636;9.492;2024-03-25T12:31:02;3.40;;;2.00;;
84021;SDS011;74108;48.636;9.492;2024-03-25T12:33:28;3.47;;;2.00;;
84021;SDS011;74108;48.636;9.492;2024-03-25T12:35:53;4.85;;;2.03;;
84021;SDS011;74108;48.636;9.492;2024-03-25T12:40:53;4.53;;;2.17;;
84021;SDS011;74108;48.636;9.492;2024-03-25T12:43:28;4.55;;;2.15;;
84021;SDS011;74108;48.636;9.492;2024-03-25T12:45:54;4.22;;;2.35;;
84021;SDS011;74108;48.636;9.492;2024-03-25T12:48:19;3.63;;;2.10;;
84021;SDS011;74108;48.636;9.492;2024-03-25T12:50:45;4.60;;;2.03;;
84021;SDS011;74108;48.636;9.492;2024-03-25T12:53:11;3.35;;;2.10;;
84021;SDS011;74108;48.636;9.492;2024-03-25T12:55:42;3.75;;;1.98;;
84021;SDS011;74108;48.636;9.492;2024-03-25T12:58:08;3.00;;;2.08;;
84021;SDS011;74108;48.636;9.492;2024-03-25T13:00:34;3.47;;;2.10;;
84021;SDS011;74108;48.636;9.492;2024-03-25T13:02:59;4.30;;;2.13;;
84021;SDS011;74108;48.636;9.492;2024-03-25T13:05:27;3.58;;;2.03;;
84021;SDS011;74108;48.636;9.492;2024-03-25T13:07:53;4.47;;;1.98;;
84021;SDS011;74108;48.636;9.492;2024-03-25T13:10:19;3.25;;;2.10;;
84021;SDS011;74108;48.636;9.492;2024-03-25T13:12:44;3.05;;;1.90;;
84021;SDS011;74108;48.636;9.492;2024-03-25T13:15:09;4.68;;;2.10;;
84021;SDS011;74108;48.636;9.492;2024-03-25T13:17:35;4.80;;;2.30;;
84021;SDS011;74108;48.636;9.492;2024-03-25T13:20:00;3.63;;;1.90;;
84021;SDS011;74108;48.636;9.492;2024-03-25T13:22:26;3.30;;;1.80;;
84021;SDS011;74108;48.636;9.492;2024-03-25T13:24:51;2.63;;;1.85;;
84021;SDS011;74108;48.636;9.492;2024-03-25T13:27:16;3.13;;;1.90;;
84021;SDS011;74108;48.636;9.492;2024-03-25T13:29:42;6.55;;;1.95;;
84021;SDS011;74108;48.636;9.492;2024-03-25T13:32:07;3.25;;;2.20;;
84021;SDS011;74108;48.636;9.492;2024-03-25T13:34:32;3.85;;;1.90;;
84021;SDS011;74108;48.636;9.492;2024-03-25T13:36:58;5.25;;;1.95;;
84021;SDS011;74108;48.636;9.492;2024-03-25T13:39:23;2.22;;;1.60;;
84021;SDS011;74108;48.636;9.492;2024-03-25T13:41:48;4.68;;;2.00;;
84021;SDS011;74108;48.636;9.492;2024-03-25T13:44:14;4.75;;;1.90;;
84021;SDS011;74108;48.636;9.492;2024-03-25T13:46:40;5.72;;;1.98;;
84021;SDS011;74108;48.636;9.492;2024-03-25T13:49:05;5.88;;;2.15;;
84021;SDS011;74108;48.636;9.492;2024-03-25T13:51:30;4.78;;;1.80;;
84021;SDS011;74108;48.636;9.492;2024-03-25T13:53:56;3.08;;;1.90;;
84021;SDS011;74108;48.636;9.492;2024-03-25T13:56:21;4.05;;;2.00;;
84021;SDS011;74108;48.636;9.492;2024-03-25T13:58:47;3.65;;;1.90;;
84021;SDS011;74108;48.636;9.492;2024-03-25T14:01:12;3.45;;;1.90;;
84021;SDS011;74108;48.636;9.492;2024-03-25T14:03:37;2.40;;;1.60;;
84021;SDS011;74108;48.636;9.492;2024-03-25T14:06:03;2.58;;;1.80;;
84021;SDS011;74108;48.636;9.492;2024-03-25T14:08:29;2.75;;;1.70;;
84021;SDS011;74108;48.636;9.492;2024-03-25T14:10:57;3.95;;;1.77;;
84021;SDS011;74108;48.636;9.492;2024-03-25T14:13:24;2.20;;;1.50;;
84021;SDS011;74108;48.636;9.492;2024-03-25T14:15:50;2.75;;;1.77;;
84021;SDS011;74108;48.636;9.492;2024-03-25T14:18:15;3.17;;;1.95;;
84021;SDS011;74108;48.636;9.492;2024-03-25T14:20:41;2.05;;;1.52;;
84021;SDS011;74108;48.636;9.492;2024-03-25T14:23:06;4.60;;;1.67;;
84021;SDS011;74108;48.636;9.492;2024-03-25T14:25:32;3.40;;;1.83;;
84021;SDS011;74108;48.636;9.492;2024-03-25T14:27:57;2.90;;;1.83;;
84021;SDS011;74108;48.636;9.492;2024-03-25T14:30:23;3.00;;;1.85;;
84021;SDS011;74108;48.636;9.492;2024-03-25T14:32:48;2.95;;;1.90;;
84021;SDS011;74108;48.636;9.492;2024-03-25T14:35:14;3.00;;;1.80;;
84021;SDS011;74108;48.636;9.492;2024-03-25T14:37:39;3.03;;;1.60;;
84021;SDS011;74108;48.636;9.492;2024-03-25T14:40:05;4.25;;;1.80;;
84021;SDS011;74108;48.636;9.492;2024-03-25T14:42:31;2.50;;;1.70;;
84021;SDS011;74108;48.636;9.492;2024-03-25T14:44:57;3.25;;;1.70;;
84021;SDS011;74108;48.636;9.492;2024-03-25T14:47:23;3.08;;;1.73;;